Time;durP1;ratioP1;P1;durP2;ratioP2;P2;SDS_P1;SDS_P2;PMS_P1;PMS_P2;Temp;Humidity;BMP_temperature;BMP_pressure;BME280_temperature;BME280_humidity;BME280_pressure;Samples;Min_cycle;Max_cycle;Signal;HPM_P1;HPM_P2
2023/05/09 00:03:36;;;;;;;14.50;8.83;;;;;14.20;101246.00;;;;9966777;29;20915;-76
2023/05/09 00:08:38;;;;;;;11.00;8.03;;;;;14.20;101244.00;;;;9961216;29;20354;-81
2023/05/09 00:13:40;;;;;;;10.40;8.20;;;;;14.20;101250.00;;;;9941466;29;21547;-77
2023/05/09 00:18:42;;;;;;;10.77;8.47;;;;;14.20;101236.00;;;;9968290;29;20216;-81
2023/05/09 00:23:45;;;;;;;9.87;6.77;;;;;14.10;101228.00;;;;9970760;29;20248;-77
2023/05/09 00:28:46;;;;;;;9.93;7.30;;;;;14.10;101218.00;;;;9953028;29;20260;-80
2023/05/09 00:33:48;;;;;;;10.00;7.53;;;;;14.10;101220.00;;;;9954927;29;20811;-79
2023/05/09 00:38:49;;;;;;;11.63;7.40;;;;;14.10;101209.00;;;;9946150;29;20225;-80
2023/05/09 00:43:51;;;;;;;10.30;7.43;;;;;14.00;101204.00;;;;9958614;29;20217;-80
2023/05/09 00:48:52;;;;;;;9.83;7.57;;;;;14.00;101185.00;;;;9948888;29;20247;-77
2023/05/09 00:53:54;;;;;;;9.27;6.90;;;;;14.00;101172.00;;;;9960114;29;20260;-78
2023/05/09 00:58:55;;;;;;;9.30;7.43;;;;;14.00;101163.00;;;;9967095;29;20687;-81
2023/05/09 01:03:57;;;;;;;9.83;7.30;;;;;14.00;101152.00;;;;9964796;29;20354;-79
2023/05/09 01:09:07;;;;;;;8.90;6.77;;;;;14.00;101140.00;;;;9952656;29;20897;-78
2023/05/09 01:14:21;;;;;;;11.87;7.20;;;;;14.00;101133.00;;;;9949159;29;20551;-78
2023/05/09 01:19:41;;;;;;;10.97;6.87;;;;;14.00;101131.00;;;;9969070;29;20229;-78
2023/05/09 01:25:06;;;;;;;14.83;7.60;;;;;14.00;101122.00;;;;9923700;29;20239;-76
2023/05/09 01:30:09;;;;;;;10.87;6.73;;;;;14.00;101115.00;;;;9969807;29;20228;-80
2023/05/09 01:35:13;;;;;;;11.43;6.67;;;;;14.00;101118.00;;;;9985375;29;20687;-80
2023/05/09 01:40:18;;;;;;;11.23;7.37;;;;;13.90;101096.00;;;;9985456;29;20229;-78
2023/05/09 01:45:22;;;;;;;9.50;7.20;;;;;13.90;101100.00;;;;9935673;29;20290;-77
2023/05/09 01:50:24;;;;;;;9.93;7.40;;;;;13.90;101087.00;;;;9951632;29;20309;-79
2023/05/09 01:55:29;;;;;;;8.57;6.80;;;;;13.90;101082.00;;;;9933698;29;20872;-76
2023/05/09 02:00:33;;;;;;;8.17;7.37;;;;;13.90;101076.00;;;;9938709;29;20311;-80
2023/05/09 02:05:36;;;;;;;9.17;6.43;;;;;14.00;101081.00;;;;9971011;29;20274;-79
2023/05/09 02:10:37;;;;;;;11.40;7.17;;;;;14.00;101080.00;;;;9941285;29;20373;-76
2023/05/09 02:15:39;;;;;;;8.67;6.37;;;;;14.00;101076.00;;;;9970319;29;20238;-76
2023/05/09 02:20:40;;;;;;;15.50;7.13;;;;;14.00;101073.00;;;;9954586;29;20296;-81
2023/05/09 02:25:43;;;;;;;10.23;6.30;;;;;14.00;101058.00;;;;9977680;29;20239;-79
2023/05/09 02:30:46;;;;;;;9.57;6.37;;;;;13.90;101048.00;;;;9947224;29;20696;-82
2023/05/09 02:35:48;;;;;;;11.20;7.27;;;;;13.90;101062.00;;;;9952180;29;20701;-79
2023/05/09 02:40:50;;;;;;;10.63;6.50;;;;;13.90;101046.00;;;;9960828;29;20232;-77
2023/05/09 02:45:53;;;;;;;10.67;7.20;;;;;13.80;101046.00;;;;9943947;29;20248;-77
2023/05/09 02:50:56;;;;;;;9.70;6.37;;;;;13.80;101030.00;;;;9967417;29;20483;-80
2023/05/09 02:55:58;;;;;;;13.07;7.03;;;;;13.90;101027.00;;;;9945554;29;20220;-77
2023/05/09 03:00:59;;;;;;;11.03;6.90;;;;;13.90;101022.00;;;;9952949;29;20233;-76
2023/05/09 03:06:00;;;;;;;9.80;7.23;;;;;13.90;101022.00;;;;9959575;29;20620;-76
2023/05/09 03:11:02;;;;;;;10.17;7.33;;;;;14.00;101014.00;;;;9941940;29;20227;-76
2023/05/09 03:16:06;;;;;;;10.53;7.33;;;;;14.00;101000.00;;;;9941486;29;21702;-77
2023/05/09 03:21:07;;;;;;;10.27;7.03;;;;;14.00;100998.00;;;;9962557;29;21439;-75
2023/05/09 03:26:11;;;;;;;14.07;7.23;;;;;14.00;101000.00;;;;9948338;29;20775;-78
2023/05/09 03:31:12;;;;;;;14.43;7.77;;;;;14.10;101003.00;;;;9949164;29;20395;-77
2023/05/09 03:36:14;;;;;;;9.77;7.40;;;;;14.10;100986.00;;;;9935490;29;20229;-76
2023/05/09 03:41:17;;;;;;;11.17;7.77;;;;;14.00;100981.00;;;;9956973;29;20288;-77
2023/05/09 03:46:21;;;;;;;10.17;7.70;;;;;14.00;100983.00;;;;9930905;29;20236;-76
2023/05/09 03:51:23;;;;;;;10.97;7.47;;;;;14.00;100977.00;;;;9968826;29;20224;-75
2023/05/09 03:56:26;;;;;;;9.10;7.40;;;;;14.00;100978.00;;;;9965580;29;20231;-81
2023/05/09 04:01:29;;;;;;;11.43;7.70;;;;;14.00;100962.00;;;;9972423;29;20244;-76
2023/05/09 04:06:32;;;;;;;11.07;7.67;;;;;14.10;100965.00;;;;9957444;29;20236;-77
2023/05/09 04:11:35;;;;;;;8.97;6.70;;;;;14.10;100958.00;;;;9961202;29;20281;-81
2023/05/09 04:16:39;;;;;;;10.10;7.37;;;;;14.20;100950.00;;;;9964038;29;20252;-77
2023/05/09 04:21:40;;;;;;;11.07;8.07;;;;;14.20;100950.00;;;;9949229;29;20221;-79
2023/05/09 04:26:42;;;;;;;12.50;8.47;;;;;14.20;100943.00;;;;9982391;29;20259;-79
2023/05/09 04:31:48;;;;;;;13.20;8.20;;;;;14.10;100945.00;;;;9991098;29;20224;-80
2023/05/09 04:36:50;;;;;;;11.40;7.90;;;;;14.10;100942.00;;;;9955708;29;20228;-78
2023/05/09 04:41:52;;;;;;;13.13;8.50;;;;;14.10;100929.00;;;;9956126;29;20228;-78
2023/05/09 04:46:54;;;;;;;11.87;8.10;;;;;14.20;100932.00;;;;9955388;29;20232;-78
2023/05/09 04:51:56;;;;;;;13.17;8.33;;;;;14.30;100927.00;;;;9949858;29;20940;-77
2023/05/09 04:56:57;;;;;;;14.83;8.33;;;;;14.30;100920.00;;;;9957771;29;20852;-76
2023/05/09 05:02:20;;;;;;;11.80;8.80;;;;;14.30;100911.00;;;;9959448;29;21052;-77
2023/05/09 05:07:22;;;;;;;11.33;8.50;;;;;14.30;100911.00;;;;9939225;29;20240;-78
2023/05/09 05:12:24;;;;;;;13.27;8.43;;;;;14.30;100905.00;;;;9955091;29;20227;-76
2023/05/09 05:17:28;;;;;;;13.40;8.57;;;;;14.40;100901.00;;;;9973344;29;20225;-76
2023/05/09 05:22:31;;;;;;;11.55;8.75;;;;;14.40;100907.00;;;;9953838;29;20227;-76
2023/05/09 05:27:33;;;;;;;11.17;9.00;;;;;14.20;100894.00;;;;9972369;29;20468;-76
2023/05/09 05:32:35;;;;;;;10.73;8.97;;;;;14.10;100905.00;;;;9954956;29;20246;-77
2023/05/09 05:37:37;;;;;;;13.30;9.67;;;;;14.10;100899.00;;;;9974745;29;20316;-77
2023/05/09 05:42:39;;;;;;;11.97;9.80;;;;;14.10;100892.00;;;;9981365;29;20213;-76
2023/05/09 05:47:41;;;;;;;12.43;9.60;;;;;14.00;100892.00;;;;9954400;29;20251;-76
2023/05/09 05:52:43;;;;;;;10.83;9.23;;;;;14.00;100880.00;;;;9987918;29;21402;-76
2023/05/09 05:57:47;;;;;;;10.98;8.90;;;;;14.10;100876.00;;;;9967567;29;20224;-75
2023/05/09 06:02:50;;;;;;;12.03;9.37;;;;;14.10;100877.00;;;;9973985;29;20332;-77
2023/05/09 06:08:12;;;;;;;13.75;10.80;;;;;14.20;100876.00;;;;9976465;29;20251;-78
2023/05/09 06:13:13;;;;;;;11.90;10.30;;;;;14.40;100859.00;;;;9994745;29;20355;-78
2023/05/09 06:18:20;;;;;;;11.53;9.07;;;;;14.60;100857.00;;;;9975207;29;20224;-78
2023/05/09 06:23:21;;;;;;;14.68;9.82;;;;;14.80;100850.00;;;;9979524;29;20248;-75
2023/05/09 06:28:23;;;;;;;11.60;9.87;;;;;15.00;100844.00;;;;9937086;29;22014;-76
2023/05/09 06:33:24;;;;;;;12.45;9.23;;;;;15.30;100830.00;;;;9953480;29;20779;-76
2023/05/09 06:38:25;;;;;;;11.90;9.52;;;;;15.50;100833.00;;;;9951562;29;20216;-76
2023/05/09 06:43:27;;;;;;;11.38;9.32;;;;;15.60;100832.00;;;;9965927;29;20216;-78
2023/05/09 06:48:28;;;;;;;15.82;9.38;;;;;15.50;100824.00;;;;9992297;29;20371;-80
2023/05/09 06:53:29;;;;;;;11.20;8.80;;;;;15.30;100814.00;;;;9992432;29;20236;-79
2023/05/09 06:58:31;;;;;;;11.00;8.70;;;;;15.40;100820.00;;;;9979228;29;20264;-77
2023/05/09 07:03:32;;;;;;;10.32;9.00;;;;;15.60;100814.00;;;;9951340;29;20224;-76
2023/05/09 07:08:33;;;;;;;10.93;8.82;;;;;15.70;100812.00;;;;9989626;29;20279;-77
2023/05/09 07:13:35;;;;;;;10.18;8.70;;;;;15.60;100795.00;;;;9992653;29;20224;-76
2023/05/09 07:18:36;;;;;;;11.60;7.90;;;;;15.60;100796.00;;;;9979685;29;20380;-78
2023/05/09 07:23:38;;;;;;;10.43;8.55;;;;;15.80;100792.00;;;;9997632;29;20231;-77
2023/05/09 07:28:39;;;;;;;10.38;9.18;;;;;15.70;100784.00;;;;9994090;29;20239;-77
2023/05/09 07:33:40;;;;;;;10.88;8.45;;;;;15.70;100776.00;;;;9979022;29;20235;-77
2023/05/09 07:38:42;;;;;;;10.52;7.93;;;;;15.50;100773.00;;;;9987989;29;20224;-77
2023/05/09 07:43:44;;;;;;;9.00;6.72;;;;;15.60;100764.00;;;;9959760;29;21603;-76
2023/05/09 07:48:45;;;;;;;8.25;7.25;;;;;15.50;100766.00;;;;9944659;29;20247;-75
2023/05/09 07:53:47;;;;;;;7.80;6.57;;;;;15.60;100760.00;;;;9971023;29;20227;-76
2023/05/09 07:58:48;;;;;;;7.35;6.07;;;;;15.70;100752.00;;;;9966510;29;20932;-77
2023/05/09 08:03:49;;;;;;;9.40;7.03;;;;;16.00;100745.00;;;;9963468;29;20227;-76
2023/05/09 08:08:51;;;;;;;6.53;5.93;;;;;16.20;100733.00;;;;9983432;29;20315;-77
2023/05/09 08:13:53;;;;;;;8.05;6.35;;;;;16.20;100731.00;;;;9993391;29;20305;-77
2023/05/09 08:18:54;;;;;;;9.45;6.43;;;;;16.00;100725.00;;;;9996366;29;20302;-77
2023/05/09 08:23:55;;;;;;;11.63;6.28;;;;;15.80;100720.00;;;;9983565;29;20235;-78
2023/05/09 08:28:56;;;;;;;8.68;6.80;;;;;15.70;100716.00;;;;9985971;29;20612;-77
2023/05/09 08:33:58;;;;;;;6.90;6.20;;;;;15.70;100716.00;;;;9966030;29;20703;-77
2023/05/09 08:38:59;;;;;;;10.57;7.13;;;;;15.90;100702.00;;;;9964124;29;20232;-78
2023/05/09 08:44:01;;;;;;;6.75;5.70;;;;;16.00;100709.00;;;;9966829;29;20774;-77
2023/05/09 08:49:06;;;;;;;7.72;5.95;;;;;16.00;100700.00;;;;9951889;29;20244;-76
2023/05/09 08:54:07;;;;;;;5.82;5.20;;;;;16.00;100702.00;;;;9968089;29;20296;-76
2023/05/09 08:59:09;;;;;;;5.55;5.05;;;;;16.00;100695.00;;;;9982875;29;21151;-76
2023/05/09 09:04:13;;;;;;;5.72;4.82;;;;;16.00;100686.00;;;;9984755;29;20227;-76
2023/05/09 09:09:16;;;;;;;9.40;5.72;;;;;15.60;100692.00;;;;9975283;29;20774;-76
2023/05/09 09:14:24;;;;;;;10.07;5.47;;;;;15.40;100693.00;;;;9972851;29;20548;-77
2023/05/09 09:25:31;;;;;;;9.80;6.32;;;;;16.30;100673.00;;;;11916916;24;20209;-78
2023/05/09 09:30:32;;;;;;;7.40;6.00;;;;;16.30;100666.00;;;;9806852;29;20706;-78
2023/05/09 09:35:38;;;;;;;7.47;5.75;;;;;16.60;100672.00;;;;9804875;29;20235;-78
2023/05/09 09:40:48;;;;;;;7.20;4.43;;;;;16.70;100668.00;;;;9790389;29;20224;-77
2023/05/09 09:45:50;;;;;;;5.00;3.60;;;;;16.30;100668.00;;;;9801834;29;20247;-78
2023/05/09 09:50:54;;;;;;;6.22;3.95;;;;;16.10;100664.00;;;;9817270;29;20236;-76
2023/05/09 09:55:55;;;;;;;4.93;3.88;;;;;15.90;100658.00;;;;9809751;29;20292;-75
2023/05/09 10:01:23;;;;;;;7.80;4.07;;;;;16.20;100654.00;;;;9809937;29;20228;-75
2023/05/09 10:06:25;;;;;;;5.55;4.35;;;;;16.10;100651.00;;;;9809661;29;22069;-77
2023/05/09 10:11:29;;;;;;;4.50;4.10;;;;;16.10;100650.00;;;;9819715;29;21590;-76
2023/05/09 10:16:30;;;;;;;5.05;4.00;;;;;15.80;100648.00;;;;9808253;29;20687;-76
2023/05/09 10:21:56;;;;;;;5.43;4.22;;;;;15.80;100644.00;;;;9787601;29;20549;-76
2023/05/09 10:27:09;;;;;;;7.32;4.72;;;;;15.70;100646.00;;;;9809771;29;20232;-77
2023/05/09 10:32:22;;;;;;;7.03;4.95;;;;;15.80;100634.00;;;;9798469;29;20223;-77
2023/05/09 10:37:25;;;;;;;6.03;5.35;;;;;15.80;100625.00;;;;9807056;29;21318;-77
2023/05/09 10:42:28;;;;;;;9.70;5.43;;;;;15.60;100620.00;;;;9800439;29;20226;-75
2023/05/09 10:47:32;;;;;;;7.25;5.13;;;;;16.00;100609.00;;;;9814403;29;20258;-74
2023/05/09 10:52:33;;;;;;;6.40;4.47;;;;;16.30;100607.00;;;;9795217;29;20541;-76
2023/05/09 10:57:38;;;;;;;7.38;4.82;;;;;16.00;100609.00;;;;9795318;29;20430;-75
2023/05/09 11:02:39;;;;;;;6.35;5.47;;;;;16.10;100597.00;;;;9810967;29;20227;-75
2023/05/09 11:07:42;;;;;;;6.45;4.75;;;;;16.10;100583.00;;;;9809055;29;20246;-77
2023/05/09 11:12:57;;;;;;;6.00;4.63;;;;;16.10;100591.00;;;;9797250;29;20494;-78
2023/05/09 11:18:05;;;;;;;8.20;4.50;;;;;16.10;100581.00;;;;9816295;29;20259;-78
2023/05/09 11:23:09;;;;;;;4.70;3.83;;;;;16.00;100576.00;;;;9805993;29;20516;-77
2023/05/09 11:28:25;;;;;;;7.38;4.75;;;;;16.00;100583.00;;;;9791677;29;20242;-78
2023/05/09 11:33:30;;;;;;;5.93;4.50;;;;;15.90;100575.00;;;;9808633;29;20229;-78
2023/05/09 11:38:40;;;;;;;5.95;4.10;;;;;16.00;100567.00;;;;9809118;29;20290;-77
2023/05/09 11:43:43;;;;;;;5.13;4.63;;;;;16.40;100563.00;;;;9788526;29;20223;-77
2023/05/09 11:48:47;;;;;;;5.45;4.00;;;;;16.40;100550.00;;;;9795323;29;20239;-76
2023/05/09 11:53:49;;;;;;;5.05;3.90;;;;;16.20;100548.00;;;;9804857;29;20230;-79
2023/05/09 11:58:51;;;;;;;6.50;3.90;;;;;15.70;100548.00;;;;9807226;29;21386;-79
2023/05/09 12:03:52;;;;;;;4.40;3.65;;;;;16.00;100536.00;;;;9832721;29;20283;-77
2023/05/09 12:08:54;;;;;;;4.03;3.63;;;;;15.90;100542.00;;;;9835899;29;20247;-80
2023/05/09 12:13:56;;;;;;;7.68;3.90;;;;;16.30;100531.00;;;;9820303;29;20236;-76
2023/05/09 12:18:57;;;;;;;4.32;3.50;;;;;16.70;100525.00;;;;9808595;29;20859;-77
2023/05/09 12:23:58;;;;;;;7.07;4.38;;;;;16.70;100526.00;;;;9808620;29;20235;-76
2023/05/09 12:29:00;;;;;;;5.15;3.90;;;;;15.80;100527.00;;;;9793073;29;20243;-78
2023/05/09 12:34:02;;;;;;;4.88;3.25;;;;;15.60;100537.00;;;;9809349;29;21855;-76
2023/05/09 12:39:11;;;;;;;3.33;2.50;;;;;15.60;100531.00;;;;9793217;29;20235;-77
2023/05/09 12:44:25;;;;;;;4.25;3.08;;;;;15.80;100524.00;;;;9808876;29;20773;-77
2023/05/09 12:49:28;;;;;;;2.17;1.90;;;;;15.80;100518.00;;;;9812365;29;20871;-77
2023/05/09 12:54:29;;;;;;;3.80;2.00;;;;;15.90;100508.00;;;;9780461;29;20323;-77
2023/05/09 12:59:32;;;;;;;3.05;1.75;;;;;15.90;100513.00;;;;9823288;29;20220;-77
2023/05/09 13:04:33;;;;;;;5.53;1.60;;;;;15.70;100504.00;;;;9814206;29;20228;-78
2023/05/09 13:09:35;;;;;;;4.30;1.30;;;;;15.30;100511.00;;;;9790214;29;21248;-76
2023/05/09 13:14:36;;;;;;;3.05;1.52;;;;;15.10;100504.00;;;;9793263;29;20227;-77
2023/05/09 13:19:38;;;;;;;2.58;1.65;;;;;15.00;100507.00;;;;9791087;29;21704;-77
2023/05/09 13:24:39;;;;;;;2.28;1.67;;;;;15.00;100499.00;;;;9806978;29;20231;-81
2023/05/09 13:29:41;;;;;;;2.30;1.70;;;;;14.90;100492.00;;;;9823650;29;21506;-78
2023/05/09 13:34:43;;;;;;;2.95;2.00;;;;;15.00;100486.00;;;;9820338;29;20224;-80
2023/05/09 13:39:44;;;;;;;2.17;1.85;;;;;14.90;100483.00;;;;9823727;29;20224;-80
2023/05/09 13:44:45;;;;;;;2.55;1.70;;;;;14.90;100478.00;;;;9810781;29;20223;-80
2023/05/09 13:49:47;;;;;;;3.10;1.90;;;;;14.80;100480.00;;;;9807163;29;20335;-80
2023/05/09 13:54:49;;;;;;;2.35;1.65;;;;;14.90;100480.00;;;;9807372;29;20235;-79
2023/05/09 13:59:50;;;;;;;2.53;1.85;;;;;14.90;100466.00;;;;9828288;29;20230;-80
2023/05/09 14:04:52;;;;;;;3.17;1.85;;;;;14.60;100463.00;;;;9830183;29;20322;-78
2023/05/09 14:09:53;;;;;;;1.95;1.75;;;;;14.40;100456.00;;;;9836446;29;20250;-80
2023/05/09 14:15:09;;;;;;;3.72;2.70;;;;;14.30;100459.00;;;;9846251;29;20351;-80
2023/05/09 14:20:11;;;;;;;2.15;1.80;;;;;14.30;100453.00;;;;9845154;29;20227;-80
2023/05/09 14:25:13;;;;;;;3.10;2.03;;;;;14.20;100444.00;;;;9823517;29;20239;-79
2023/05/09 14:30:14;;;;;;;2.77;2.47;;;;;14.20;100441.00;;;;9839238;29;20243;-80
2023/05/09 14:35:17;;;;;;;3.07;2.00;;;;;14.10;100439.00;;;;9827753;29;21052;-78
2023/05/09 14:40:19;;;;;;;3.30;3.00;;;;;14.20;100428.00;;;;9816255;29;21001;-78
2023/05/09 14:45:21;;;;;;;2.57;2.00;;;;;14.10;100425.00;;;;9820784;29;20231;-78
2023/05/09 14:50:22;;;;;;;2.30;2.10;;;;;13.90;100422.00;;;;9834220;29;20282;-80
2023/05/09 14:55:25;;;;;;;3.50;2.43;;;;;13.90;100418.00;;;;9832449;29;20268;-78
2023/05/09 15:00:27;;;;;;;3.03;2.50;;;;;14.10;100416.00;;;;9817516;29;20223;-78
2023/05/09 15:05:29;;;;;;;3.03;2.37;;;;;14.10;100413.00;;;;9790080;29;20228;-79
2023/05/09 15:10:31;;;;;;;2.87;2.23;;;;;14.10;100403.00;;;;9808563;29;21597;-78
2023/05/09 15:15:33;;;;;;;4.93;2.60;;;;;14.20;100400.00;;;;9803467;29;20219;-78
2023/05/09 15:20:38;;;;;;;2.47;2.03;;;;;14.10;100404.00;;;;9784222;29;20708;-78
2023/05/09 15:25:41;;;;;;;2.77;2.50;;;;;14.00;100412.00;;;;9823585;29;20251;-79
2023/05/09 15:30:44;;;;;;;2.93;2.70;;;;;13.90;100412.00;;;;9825088;29;20313;-79
2023/05/09 15:35:45;;;;;;;3.27;2.87;;;;;14.00;100411.00;;;;9838055;29;20253;-78
2023/05/09 15:40:47;;;;;;;5.00;2.20;;;;;14.10;100406.00;;;;9836406;29;20327;-79
2023/05/09 15:45:48;;;;;;;2.40;1.90;;;;;14.10;100407.00;;;;9828405;29;20251;-78
2023/05/09 15:50:51;;;;;;;2.50;2.30;;;;;14.20;100406.00;;;;9830122;29;20234;-79
2023/05/09 15:55:54;;;;;;;3.20;2.47;;;;;14.40;100405.00;;;;9827045;29;20298;-79
2023/05/09 16:00:55;;;;;;;2.83;2.63;;;;;14.50;100401.00;;;;9818764;29;20322;-79
2023/05/09 16:05:57;;;;;;;2.67;2.38;;;;;14.50;100403.00;;;;9820308;29;20959;-79
2023/05/09 16:11:00;;;;;;;3.17;2.00;;;;;14.50;100387.00;;;;9797694;29;20235;-78
2023/05/09 16:16:02;;;;;;;3.38;2.08;;;;;14.70;100390.00;;;;9828740;29;20231;-79
2023/05/09 16:21:04;;;;;;;2.70;2.50;;;;;14.70;100390.00;;;;9809707;29;22211;-79
2023/05/09 16:26:06;;;;;;;1.80;1.70;;;;;14.50;100393.00;;;;9803681;29;20334;-77
2023/05/09 16:31:07;;;;;;;3.10;2.00;;;;;14.50;100393.00;;;;9799067;29;20228;-77
2023/05/09 16:36:09;;;;;;;3.40;2.60;;;;;14.50;100387.00;;;;9774725;29;20288;-76
2023/05/09 16:41:10;;;;;;;2.97;2.53;;;;;14.50;100393.00;;;;9783997;29;20250;-76
2023/05/09 16:46:11;;;;;;;5.80;2.78;;;;;14.40;100396.00;;;;9797715;29;20223;-77
2023/05/09 16:51:13;;;;;;;2.40;2.20;;;;;14.40;100384.00;;;;9786028;29;20301;-76
2023/05/09 16:56:14;;;;;;;2.97;2.73;;;;;14.40;100371.00;;;;9800591;29;20371;-76
2023/05/09 17:01:15;;;;;;;3.40;3.10;;;;;14.40;100379.00;;;;9810696;29;20680;-76
2023/05/09 17:06:18;;;;;;;7.63;3.00;;;;;14.50;100372.00;;;;9810728;29;20304;-78
2023/05/09 17:11:20;;;;;;;2.90;2.70;;;;;14.50;100366.00;;;;9809098;29;20231;-76
2023/05/09 17:16:21;;;;;;;3.28;2.97;;;;;14.50;100362.00;;;;9800767;29;20231;-76
2023/05/09 17:21:23;;;;;;;3.42;3.13;;;;;14.60;100353.00;;;;9823850;29;20251;-75
2023/05/09 17:26:24;;;;;;;6.35;3.75;;;;;14.60;100356.00;;;;9807320;29;20263;-75
2023/05/09 17:31:25;;;;;;;3.90;3.55;;;;;14.70;100357.00;;;;9802525;29;20232;-75
2023/05/09 17:36:27;;;;;;;4.20;3.80;;;;;14.70;100349.00;;;;9825631;29;20396;-75
2023/05/09 17:41:29;;;;;;;6.40;4.38;;;;;14.70;100356.00;;;;9828133;29;20274;-75
2023/05/09 17:46:31;;;;;;;5.25;4.28;;;;;14.80;100351.00;;;;9829644;29;21620;-75
2023/05/09 17:51:32;;;;;;;5.22;4.60;;;;;14.90;100347.00;;;;9831605;29;21781;-76
2023/05/09 17:56:34;;;;;;;5.47;4.95;;;;;15.00;100353.00;;;;9819174;29;20220;-75
2023/05/09 18:01:36;;;;;;;6.72;4.90;;;;;14.80;100348.00;;;;9826522;29;20474;-77
2023/05/09 18:06:38;;;;;;;6.50;5.30;;;;;14.60;100358.00;;;;9835992;29;20231;-77
2023/05/09 18:11:39;;;;;;;6.68;5.28;;;;;14.50;100355.00;;;;9833922;29;20231;-77
2023/05/09 18:16:41;;;;;;;5.65;4.88;;;;;14.40;100349.00;;;;9828886;29;20223;-75
2023/05/09 18:21:42;;;;;;;8.90;5.47;;;;;14.30;100347.00;;;;9830282;29;20262;-77
2023/05/09 18:26:43;;;;;;;6.90;6.20;;;;;14.30;100355.00;;;;9828581;29;20250;-76
2023/05/09 18:31:45;;;;;;;7.85;6.32;;;;;14.20;100364.00;;;;9830302;29;20238;-77
2023/05/09 18:36:47;;;;;;;7.30;6.60;;;;;14.10;100357.00;;;;9826524;29;20322;-76
2023/05/09 18:41:48;;;;;;;8.13;6.67;;;;;14.00;100358.00;;;;9814052;29;20228;-77
2023/05/09 18:46:52;;;;;;;7.93;7.10;;;;;14.00;100348.00;;;;9808540;29;20243;-78
2023/05/09 18:51:58;;;;;;;7.90;6.83;;;;;13.80;100355.00;;;;9816747;29;20305;-76
2023/05/09 18:57:02;;;;;;;9.23;7.50;;;;;13.80;100356.00;;;;9821726;29;20219;-77
2023/05/09 19:02:03;;;;;;;8.93;8.03;;;;;13.70;100351.00;;;;9826129;29;20223;-77
2023/05/09 19:07:06;;;;;;;11.37;8.93;;;;;13.70;100360.00;;;;9826424;29;20821;-77
2023/05/09 19:12:08;;;;;;;11.07;8.77;;;;;13.60;100368.00;;;;9804650;29;20220;-77
2023/05/09 19:17:09;;;;;;;15.67;10.17;;;;;13.60;100361.00;;;;9826531;29;20281;-77
2023/05/09 19:22:11;;;;;;;13.40;9.30;;;;;13.50;100371.00;;;;9828314;29;20223;-79
2023/05/09 19:27:13;;;;;;;14.77;10.30;;;;;13.40;100381.00;;;;9828288;29;20253;-80
2023/05/09 19:32:16;;;;;;;12.20;10.30;;;;;13.40;100376.00;;;;9810069;29;20219;-76
2023/05/09 19:37:18;;;;;;;15.93;11.47;;;;;13.40;100375.00;;;;9809176;29;20261;-76
2023/05/09 19:42:20;;;;;;;15.70;12.10;;;;;13.40;100379.00;;;;9826833;29;20231;-75
2023/05/09 19:47:21;;;;;;;16.07;12.73;;;;;13.40;100376.00;;;;9823004;29;20277;-75
2023/05/09 19:52:22;;;;;;;16.57;13.57;;;;;13.40;100382.00;;;;9825108;29;21986;-76
2023/05/09 19:57:24;;;;;;;16.53;13.60;;;;;13.40;100387.00;;;;9827890;29;20284;-75
2023/05/09 20:02:26;;;;;;;20.07;14.90;;;;;13.40;100393.00;;;;9831972;29;20227;-78
2023/05/09 20:07:28;;;;;;;20.17;15.17;;;;;13.40;100398.00;;;;9829839;29;21986;-78
2023/05/09 20:12:30;;;;;;;24.70;15.53;;;;;13.40;100391.00;;;;9800968;29;20398;-79
2023/05/09 20:17:31;;;;;;;18.63;13.60;;;;;13.30;100383.00;;;;9820024;29;20235;-76
2023/05/09 20:22:32;;;;;;;20.03;13.40;;;;;13.30;100388.00;;;;9804886;29;20234;-77
2023/05/09 20:27:36;;;;;;;18.13;12.03;;;;;13.30;100383.00;;;;9832259;29;20231;-76
2023/05/09 20:32:37;;;;;;;22.17;13.07;;;;;13.20;100395.00;;;;9810640;29;20281;-75
2023/05/09 20:37:39;;;;;;;17.50;13.23;;;;;13.20;100396.00;;;;9828996;29;20325;-76
2023/05/09 20:42:40;;;;;;;17.67;12.47;;;;;13.20;100394.00;;;;9827231;29;21571;-76
2023/05/09 20:47:42;;;;;;;15.60;10.83;;;;;13.10;100396.00;;;;9827509;29;20313;-76
2023/05/09 20:52:43;;;;;;;19.97;10.87;;;;;13.10;100398.00;;;;9814243;29;20250;-76
2023/05/09 20:57:44;;;;;;;14.33;9.83;;;;;13.10;100389.00;;;;9810468;29;20223;-76
2023/05/09 21:02:46;;;;;;;11.70;8.90;;;;;13.10;100394.00;;;;9829343;29;20224;-74
2023/05/09 21:07:47;;;;;;;15.30;9.27;;;;;13.10;100392.00;;;;9828204;29;20279;-75
2023/05/09 21:12:49;;;;;;;16.43;8.90;;;;;13.10;100386.00;;;;9824604;29;20376;-74
2023/05/09 21:17:50;;;;;;;12.33;10.03;;;;;13.10;100383.00;;;;9802527;29;20234;-75
2023/05/09 21:22:51;;;;;;;20.27;11.07;;;;;13.00;100373.00;;;;9809246;29;20223;-75
2023/05/09 21:27:53;;;;;;;13.60;10.63;;;;;13.00;100370.00;;;;9796035;29;20379;-76
2023/05/09 21:32:54;;;;;;;15.47;10.10;;;;;13.00;100361.00;;;;9798553;29;20341;-76
2023/05/09 21:37:55;;;;;;;15.17;9.47;;;;;12.90;100367.00;;;;9799033;29;21032;-77
2023/05/09 21:42:57;;;;;;;12.37;8.53;;;;;12.90;100363.00;;;;9816381;29;20425;-77
2023/05/09 21:47:58;;;;;;;13.10;9.13;;;;;12.90;100363.00;;;;9814044;29;20369;-77
2023/05/09 21:53:00;;;;;;;17.73;9.77;;;;;12.90;100364.00;;;;9808759;29;21375;-76
2023/05/09 21:58:01;;;;;;;13.60;8.90;;;;;12.80;100362.00;;;;9805781;29;20215;-79
2023/05/09 22:03:03;;;;;;;14.70;10.20;;;;;12.80;100366.00;;;;9811780;29;20935;-81
2023/05/09 22:08:04;;;;;;;19.53;11.00;;;;;12.80;100358.00;;;;9808734;29;20541;-77
2023/05/09 22:13:06;;;;;;;23.07;10.03;;;;;12.80;100360.00;;;;9789205;29;20227;-75
2023/05/09 22:18:07;;;;;;;22.57;12.43;;;;;12.80;100363.00;;;;9804850;29;21308;-74
2023/05/09 22:23:09;;;;;;;17.27;11.27;;;;;12.80;100363.00;;;;9804878;29;20375;-77
2023/05/09 22:28:10;;;;;;;17.43;12.37;;;;;12.70;100359.00;;;;9804068;29;21454;-75
2023/05/09 22:33:12;;;;;;;20.97;14.10;;;;;12.70;100362.00;;;;9790443;29;20273;-76
2023/05/09 22:38:13;;;;;;;20.27;13.97;;;;;12.60;100363.00;;;;9805826;29;20726;-76
2023/05/09 22:43:14;;;;;;;19.60;13.27;;;;;12.50;100362.00;;;;9807606;29;20306;-80
2023/05/09 22:48:16;;;;;;;31.33;14.00;;;;;12.40;100362.00;;;;9795788;29;20235;-77
2023/05/09 22:53:17;;;;;;;18.77;13.00;;;;;12.40;100366.00;;;;9814227;29;20846;-81
2023/05/09 22:58:19;;;;;;;22.77;13.80;;;;;12.30;100369.00;;;;9790096;29;20219;-76
2023/05/09 23:03:21;;;;;;;21.73;12.87;;;;;12.30;100354.00;;;;9789811;29;20582;-78
2023/05/09 23:08:23;;;;;;;25.23;13.57;;;;;12.30;100362.00;;;;9804801;29;20319;-76
2023/05/09 23:13:24;;;;;;;22.03;13.70;;;;;12.40;100358.00;;;;9781132;29;20277;-76
2023/05/09 23:18:26;;;;;;;25.97;13.57;;;;;12.40;100367.00;;;;9785723;29;20317;-76
2023/05/09 23:23:28;;;;;;;19.40;12.10;;;;;12.40;100376.00;;;;9801880;29;20270;-75
2023/05/09 23:28:29;;;;;;;20.67;12.67;;;;;12.40;100365.00;;;;9798884;29;20270;-76
2023/05/09 23:33:30;;;;;;;19.93;10.30;;;;;12.40;100361.00;;;;9783908;29;20220;-76
2023/05/09 23:38:32;;;;;;;17.63;11.37;;;;;12.40;100364.00;;;;9800535;29;20896;-77
2023/05/09 23:43:33;;;;;;;21.93;10.73;;;;;12.30;100368.00;;;;9799383;29;20920;-76
2023/05/09 23:48:34;;;;;;;17.87;10.90;;;;;12.30;100370.00;;;;9784140;29;21331;-76
2023/05/09 23:53:36;;;;;;;16.73;9.67;;;;;12.30;100370.00;;;;9805071;29;20230;-80
2023/05/09 23:58:37;;;;;;;20.67;10.63;;;;;12.30;100368.00;;;;9802110;29;20367;-75
